sensor_id;sensor_type;location;lat;lon;timestamp;P1;durP1;ratioP1;P2;durP2;ratioP2
2049;SDS011;8478;49.208;8.806;2023-03-01T00:01:11;13.53;;;12.33;;
2049;SDS011;8478;49.208;8.806;2023-03-01T00:03:38;13.77;;;12.60;;
2049;SDS011;8478;49.208;8.806;2023-03-01T00:06:04;13.50;;;12.30;;
2049;SDS011;8478;49.208;8.806;2023-03-01T00:08:31;13.47;;;12.27;;
2049;SDS011;8478;49.208;8.806;2023-03-01T00:11:11;13.27;;;12.10;;
2049;SDS011;8478;49.208;8.806;2023-03-01T00:13:37;13.83;;;12.63;;
2049;SDS011;8478;49.208;8.806;2023-03-01T00:16:04;12.10;;;11.20;;
2049;SDS011;8478;49.208;8.806;2023-03-01T00:18:33;11.53;;;10.63;;
2049;SDS011;8478;49.208;8.806;2023-03-01T00:20:59;11.83;;;10.83;;
2049;SDS011;8478;49.208;8.806;2023-03-01T00:23:25;13.23;;;12.07;;
2049;SDS011;8478;49.208;8.806;2023-03-01T00:25:51;11.87;;;10.70;;
2049;SDS011;8478;49.208;8.806;2023-03-01T00:28:17;12.53;;;11.53;;
2049;SDS011;8478;49.208;8.806;2023-03-01T00:30:44;12.30;;;11.17;;
2049;SDS011;8478;49.208;8.806;2023-03-01T00:33:10;12.90;;;11.83;;
2049;SDS011;8478;49.208;8.806;2023-03-01T00:35:36;11.90;;;10.90;;
2049;SDS011;8478;49.208;8.806;2023-03-01T00:38:02;12.30;;;11.30;;
2049;SDS011;8478;49.208;8.806;2023-03-01T00:40:29;12.77;;;11.70;;
2049;SDS011;8478;49.208;8.806;2023-03-01T00:42:57;12.70;;;11.67;;
2049;SDS011;8478;49.208;8.806;2023-03-01T00:45:23;11.50;;;10.50;;
2049;SDS011;8478;49.208;8.806;2023-03-01T00:47:49;12.60;;;11.40;;
2049;SDS011;8478;49.208;8.806;2023-03-01T00:50:16;12.17;;;11.17;;
2049;SDS011;8478;49.208;8.806;2023-03-01T00:52:42;12.50;;;11.50;;
2049;SDS011;8478;49.208;8.806;2023-03-01T00:55:08;13.60;;;12.47;;
2049;SDS011;8478;49.208;8.806;2023-03-01T00:57:34;13.13;;;12.00;;
2049;SDS011;8478;49.208;8.806;2023-03-01T01:00:00;12.87;;;11.67;;
2049;SDS011;8478;49.208;8.806;2023-03-01T01:02:26;13.43;;;12.33;;
2049;SDS011;8478;49.208;8.806;2023-03-01T01:04:52;12.37;;;11.27;;
2049;SDS011;8478;49.208;8.806;2023-03-01T01:07:18;12.37;;;11.47;;
2049;SDS011;8478;49.208;8.806;2023-03-01T01:09:45;13.57;;;12.30;;
2049;SDS011;8478;49.208;8.806;2023-03-01T01:12:11;11.90;;;10.90;;
2049;SDS011;8478;49.208;8.806;2023-03-01T01:14:37;12.80;;;11.70;;
2049;SDS011;8478;49.208;8.806;2023-03-01T01:17:03;12.80;;;11.90;;
2049;SDS011;8478;49.208;8.806;2023-03-01T01:19:29;13.30;;;12.10;;
2049;SDS011;8478;49.208;8.806;2023-03-01T01:21:55;13.90;;;12.70;;
2049;SDS011;8478;49.208;8.806;2023-03-01T01:24:21;12.70;;;11.50;;
2049;SDS011;8478;49.208;8.806;2023-03-01T01:26:47;12.50;;;11.50;;
2049;SDS011;8478;49.208;8.806;2023-03-01T01:29:13;12.33;;;11.23;;
2049;SDS011;8478;49.208;8.806;2023-03-01T01:31:39;13.50;;;12.40;;
2049;SDS011;8478;49.208;8.806;2023-03-01T01:34:07;13.70;;;12.40;;
2049;SDS011;8478;49.208;8.806;2023-03-01T01:36:37;12.70;;;11.60;;
2049;SDS011;8478;49.208;8.806;2023-03-01T01:39:03;12.97;;;11.90;;
2049;SDS011;8478;49.208;8.806;2023-03-01T01:41:29;13.93;;;12.73;;
2049;SDS011;8478;49.208;8.806;2023-03-01T01:47:00;13.77;;;12.53;;
2049;SDS011;8478;49.208;8.806;2023-03-01T01:52:16;12.93;;;11.77;;
2049;SDS011;8478;49.208;8.806;2023-03-01T01:55:00;12.23;;;11.13;;
2049;SDS011;8478;49.208;8.806;2023-03-01T01:57:40;12.47;;;11.57;;
2049;SDS011;8478;49.208;8.806;2023-03-01T02:00:12;12.80;;;11.70;;
2049;SDS011;8478;49.208;8.806;2023-03-01T02:02:40;12.10;;;11.20;;
2049;SDS011;8478;49.208;8.806;2023-03-01T02:07:41;12.83;;;11.83;;
2049;SDS011;8478;49.208;8.806;2023-03-01T02:10:08;13.77;;;12.57;;
2049;SDS011;8478;49.208;8.806;2023-03-01T02:12:34;15.10;;;13.80;;
2049;SDS011;8478;49.208;8.806;2023-03-01T02:15:02;15.20;;;13.80;;
2049;SDS011;8478;49.208;8.806;2023-03-01T02:17:28;15.13;;;13.83;;
2049;SDS011;8478;49.208;8.806;2023-03-01T02:22:32;15.47;;;14.10;;
2049;SDS011;8478;49.208;8.806;2023-03-01T02:25:07;15.60;;;14.07;;
2049;SDS011;8478;49.208;8.806;2023-03-01T02:30:50;15.30;;;13.97;;
2049;SDS011;8478;49.208;8.806;2023-03-01T02:33:35;14.07;;;12.87;;
2049;SDS011;8478;49.208;8.806;2023-03-01T02:36:23;14.13;;;12.93;;
2049;SDS011;8478;49.208;8.806;2023-03-01T02:38:55;16.03;;;14.63;;
2049;SDS011;8478;49.208;8.806;2023-03-01T02:41:23;15.07;;;13.77;;
2049;SDS011;8478;49.208;8.806;2023-03-01T02:43:51;13.87;;;12.77;;
2049;SDS011;8478;49.208;8.806;2023-03-01T02:46:18;15.13;;;13.60;;
2049;SDS011;8478;49.208;8.806;2023-03-01T02:48:51;14.40;;;13.20;;
2049;SDS011;8478;49.208;8.806;2023-03-01T02:54:42;14.00;;;12.83;;
2049;SDS011;8478;49.208;8.806;2023-03-01T02:57:29;14.50;;;13.10;;
2049;SDS011;8478;49.208;8.806;2023-03-01T02:59:59;15.07;;;13.77;;
2049;SDS011;8478;49.208;8.806;2023-03-01T03:02:32;13.07;;;12.03;;
2049;SDS011;8478;49.208;8.806;2023-03-01T03:05:04;13.93;;;12.60;;
2049;SDS011;8478;49.208;8.806;2023-03-01T03:07:33;15.00;;;13.60;;
2049;SDS011;8478;49.208;8.806;2023-03-01T03:10:01;15.57;;;14.30;;
2049;SDS011;8478;49.208;8.806;2023-03-01T03:12:28;14.93;;;13.50;;
2049;SDS011;8478;49.208;8.806;2023-03-01T03:14:54;14.27;;;13.03;;
2049;SDS011;8478;49.208;8.806;2023-03-01T03:17:20;15.10;;;13.80;;
2049;SDS011;8478;49.208;8.806;2023-03-01T03:19:45;15.40;;;13.23;;
2049;SDS011;8478;49.208;8.806;2023-03-01T03:22:12;15.17;;;13.73;;
2049;SDS011;8478;49.208;8.806;2023-03-01T03:24:38;15.10;;;13.80;;
2049;SDS011;8478;49.208;8.806;2023-03-01T03:27:04;15.90;;;14.37;;
2049;SDS011;8478;49.208;8.806;2023-03-01T03:29:31;15.80;;;14.43;;
2049;SDS011;8478;49.208;8.806;2023-03-01T03:31:56;15.40;;;14.10;;
2049;SDS011;8478;49.208;8.806;2023-03-01T03:34:23;14.90;;;13.60;;
2049;SDS011;8478;49.208;8.806;2023-03-01T03:36:55;14.60;;;13.30;;
2049;SDS011;8478;49.208;8.806;2023-03-01T03:39:25;15.27;;;13.77;;
2049;SDS011;8478;49.208;8.806;2023-03-01T03:41:52;14.47;;;13.20;;
2049;SDS011;8478;49.208;8.806;2023-03-01T03:44:19;14.37;;;13.07;;
2049;SDS011;8478;49.208;8.806;2023-03-01T03:46:45;14.60;;;13.10;;
2049;SDS011;8478;49.208;8.806;2023-03-01T03:49:10;13.50;;;12.30;;
2049;SDS011;8478;49.208;8.806;2023-03-01T03:51:36;15.67;;;14.17;;
2049;SDS011;8478;49.208;8.806;2023-03-01T03:54:02;16.77;;;15.30;;
2049;SDS011;8478;49.208;8.806;2023-03-01T03:56:27;16.30;;;14.90;;
2049;SDS011;8478;49.208;8.806;2023-03-01T03:58:53;17.10;;;15.60;;
2049;SDS011;8478;49.208;8.806;2023-03-01T04:01:19;18.43;;;16.83;;
2049;SDS011;8478;49.208;8.806;2023-03-01T04:03:44;18.87;;;17.40;;
2049;SDS011;8478;49.208;8.806;2023-03-01T04:06:12;19.37;;;17.60;;
2049;SDS011;8478;49.208;8.806;2023-03-01T04:08:39;18.10;;;16.40;;
2049;SDS011;8478;49.208;8.806;2023-03-01T04:11:05;17.60;;;16.00;;
2049;SDS011;8478;49.208;8.806;2023-03-01T04:13:49;18.90;;;17.30;;
2049;SDS011;8478;49.208;8.806;2023-03-01T04:16:16;19.00;;;17.33;;
2049;SDS011;8478;49.208;8.806;2023-03-01T04:18:43;18.20;;;16.67;;
2049;SDS011;8478;49.208;8.806;2023-03-01T04:21:08;19.97;;;18.13;;
2049;SDS011;8478;49.208;8.806;2023-03-01T04:23:35;19.07;;;17.50;;
2049;SDS011;8478;49.208;8.806;2023-03-01T04:26:01;17.57;;;15.97;;
2049;SDS011;8478;49.208;8.806;2023-03-01T04:28:28;19.73;;;17.93;;
2049;SDS011;8478;49.208;8.806;2023-03-01T04:30:56;18.20;;;16.73;;
2049;SDS011;8478;49.208;8.806;2023-03-01T04:33:23;17.70;;;16.13;;
2049;SDS011;8478;49.208;8.806;2023-03-01T04:35:50;17.83;;;16.43;;
2049;SDS011;8478;49.208;8.806;2023-03-01T04:38:19;16.80;;;15.13;;
2049;SDS011;8478;49.208;8.806;2023-03-01T04:40:46;17.63;;;15.93;;
2049;SDS011;8478;49.208;8.806;2023-03-01T04:43:12;16.83;;;15.33;;
2049;SDS011;8478;49.208;8.806;2023-03-01T04:45:40;18.00;;;16.40;;
2049;SDS011;8478;49.208;8.806;2023-03-01T04:48:06;16.73;;;15.43;;
2049;SDS011;8478;49.208;8.806;2023-03-01T04:50:32;18.17;;;16.47;;
2049;SDS011;8478;49.208;8.806;2023-03-01T04:52:58;15.83;;;14.43;;
2049;SDS011;8478;49.208;8.806;2023-03-01T04:55:27;17.53;;;16.03;;
2049;SDS011;8478;49.208;8.806;2023-03-01T04:57:53;16.07;;;14.60;;
2049;SDS011;8478;49.208;8.806;2023-03-01T05:00:19;17.23;;;15.63;;
2049;SDS011;8478;49.208;8.806;2023-03-01T05:05:19;18.03;;;16.33;;
2049;SDS011;8478;49.208;8.806;2023-03-01T05:07:46;16.50;;;15.10;;
2049;SDS011;8478;49.208;8.806;2023-03-01T05:10:12;17.87;;;16.27;;
2049;SDS011;8478;49.208;8.806;2023-03-01T05:12:38;17.83;;;16.23;;
2049;SDS011;8478;49.208;8.806;2023-03-01T05:15:04;18.07;;;16.40;;
2049;SDS011;8478;49.208;8.806;2023-03-01T05:17:32;18.30;;;14.87;;
2049;SDS011;8478;49.208;8.806;2023-03-01T05:19:59;19.57;;;17.77;;
2049;SDS011;8478;49.208;8.806;2023-03-01T05:22:26;19.67;;;17.80;;
2049;SDS011;8478;49.208;8.806;2023-03-01T05:24:51;19.47;;;17.77;;
2049;SDS011;8478;49.208;8.806;2023-03-01T05:27:19;18.83;;;17.00;;
2049;SDS011;8478;49.208;8.806;2023-03-01T05:29:47;18.97;;;17.20;;
2049;SDS011;8478;49.208;8.806;2023-03-01T05:32:12;17.53;;;15.93;;
2049;SDS011;8478;49.208;8.806;2023-03-01T05:34:40;19.27;;;17.43;;
2049;SDS011;8478;49.208;8.806;2023-03-01T05:37:06;19.10;;;17.40;;
2049;SDS011;8478;49.208;8.806;2023-03-01T05:39:32;18.73;;;16.90;;
2049;SDS011;8478;49.208;8.806;2023-03-01T05:41:59;18.43;;;16.73;;
2049;SDS011;8478;49.208;8.806;2023-03-01T05:44:27;19.43;;;17.50;;
2049;SDS011;8478;49.208;8.806;2023-03-01T05:46:53;18.30;;;16.60;;
2049;SDS011;8478;49.208;8.806;2023-03-01T05:49:19;17.73;;;16.23;;
2049;SDS011;8478;49.208;8.806;2023-03-01T05:51:49;19.60;;;17.80;;
2049;SDS011;8478;49.208;8.806;2023-03-01T05:54:16;17.63;;;16.03;;
2049;SDS011;8478;49.208;8.806;2023-03-01T05:56:42;21.20;;;19.00;;
2049;SDS011;8478;49.208;8.806;2023-03-01T05:59:08;21.53;;;19.53;;
2049;SDS011;8478;49.208;8.806;2023-03-01T06:01:34;21.63;;;19.70;;
2049;SDS011;8478;49.208;8.806;2023-03-01T06:04:01;21.27;;;19.30;;
2049;SDS011;8478;49.208;8.806;2023-03-01T06:06:27;18.27;;;16.77;;
2049;SDS011;8478;49.208;8.806;2023-03-01T06:08:54;20.27;;;18.33;;
2049;SDS011;8478;49.208;8.806;2023-03-01T06:11:20;19.10;;;17.30;;
2049;SDS011;8478;49.208;8.806;2023-03-01T06:13:47;18.90;;;17.27;;
2049;SDS011;8478;49.208;8.806;2023-03-01T06:16:13;18.67;;;16.87;;
2049;SDS011;8478;49.208;8.806;2023-03-01T06:18:39;17.30;;;15.80;;
2049;SDS011;8478;49.208;8.806;2023-03-01T06:21:05;18.53;;;16.73;;
2049;SDS011;8478;49.208;8.806;2023-03-01T06:23:32;20.60;;;18.70;;
2049;SDS011;8478;49.208;8.806;2023-03-01T06:25:58;19.17;;;17.37;;
2049;SDS011;8478;49.208;8.806;2023-03-01T06:28:23;17.60;;;16.10;;
2049;SDS011;8478;49.208;8.806;2023-03-01T06:30:50;17.90;;;16.20;;
2049;SDS011;8478;49.208;8.806;2023-03-01T06:33:16;19.40;;;17.57;;
2049;SDS011;8478;49.208;8.806;2023-03-01T06:35:44;19.13;;;17.33;;
2049;SDS011;8478;49.208;8.806;2023-03-01T06:38:13;18.40;;;16.60;;
2049;SDS011;8478;49.208;8.806;2023-03-01T06:40:44;19.43;;;17.60;;
2049;SDS011;8478;49.208;8.806;2023-03-01T06:43:10;18.10;;;16.47;;
2049;SDS011;8478;49.208;8.806;2023-03-01T06:45:36;18.40;;;16.80;;
2049;SDS011;8478;49.208;8.806;2023-03-01T06:48:03;19.57;;;17.90;;
2049;SDS011;8478;49.208;8.806;2023-03-01T06:50:30;18.63;;;17.13;;
2049;SDS011;8478;49.208;8.806;2023-03-01T06:52:56;16.90;;;15.23;;
2049;SDS011;8478;49.208;8.806;2023-03-01T06:55:22;18.50;;;16.87;;
2049;SDS011;8478;49.208;8.806;2023-03-01T06:57:48;18.80;;;16.93;;
2049;SDS011;8478;49.208;8.806;2023-03-01T07:00:13;17.97;;;16.27;;
2049;SDS011;8478;49.208;8.806;2023-03-01T07:02:39;17.43;;;15.93;;
2049;SDS011;8478;49.208;8.806;2023-03-01T07:05:05;17.83;;;16.23;;
2049;SDS011;8478;49.208;8.806;2023-03-01T07:07:31;18.40;;;16.80;;
2049;SDS011;8478;49.208;8.806;2023-03-01T07:09:57;19.27;;;17.57;;
2049;SDS011;8478;49.208;8.806;2023-03-01T07:12:23;18.40;;;16.90;;
2049;SDS011;8478;49.208;8.806;2023-03-01T07:14:48;18.93;;;17.23;;
2049;SDS011;8478;49.208;8.806;2023-03-01T07:17:14;18.57;;;16.77;;
2049;SDS011;8478;49.208;8.806;2023-03-01T07:19:39;20.03;;;18.23;;
2049;SDS011;8478;49.208;8.806;2023-03-01T07:22:05;18.27;;;16.53;;
2049;SDS011;8478;49.208;8.806;2023-03-01T07:24:33;18.13;;;16.63;;
2049;SDS011;8478;49.208;8.806;2023-03-01T07:26:58;18.33;;;16.70;;
2049;SDS011;8478;49.208;8.806;2023-03-01T07:29:24;19.27;;;17.57;;
2049;SDS011;8478;49.208;8.806;2023-03-01T07:31:50;18.97;;;17.17;;
2049;SDS011;8478;49.208;8.806;2023-03-01T07:34:15;18.43;;;16.77;;
2049;SDS011;8478;49.208;8.806;2023-03-01T07:36:41;18.90;;;17.20;;
2049;SDS011;8478;49.208;8.806;2023-03-01T07:39:08;16.77;;;15.43;;
2049;SDS011;8478;49.208;8.806;2023-03-01T07:41:35;17.83;;;16.23;;
2049;SDS011;8478;49.208;8.806;2023-03-01T07:44:00;18.77;;;16.97;;
2049;SDS011;8478;49.208;8.806;2023-03-01T07:46:26;19.93;;;18.20;;
2049;SDS011;8478;49.208;8.806;2023-03-01T07:48:52;21.60;;;17.03;;
2049;SDS011;8478;49.208;8.806;2023-03-01T07:51:18;18.38;;;16.67;;
2049;SDS011;8478;49.208;8.806;2023-03-01T07:53:45;18.47;;;16.87;;
2049;SDS011;8478;49.208;8.806;2023-03-01T07:56:13;18.50;;;16.90;;
2049;SDS011;8478;49.208;8.806;2023-03-01T07:58:43;18.57;;;16.80;;
2049;SDS011;8478;49.208;8.806;2023-03-01T08:01:13;17.37;;;15.77;;
2049;SDS011;8478;49.208;8.806;2023-03-01T08:03:40;18.33;;;16.77;;
2049;SDS011;8478;49.208;8.806;2023-03-01T08:06:09;17.13;;;15.70;;
2049;SDS011;8478;49.208;8.806;2023-03-01T08:08:36;18.20;;;16.67;;
2049;SDS011;8478;49.208;8.806;2023-03-01T08:11:03;18.13;;;16.43;;
2049;SDS011;8478;49.208;8.806;2023-03-01T08:13:30;19.47;;;17.60;;
2049;SDS011;8478;49.208;8.806;2023-03-01T08:16:06;17.83;;;16.13;;
2049;SDS011;8478;49.208;8.806;2023-03-01T08:18:33;17.80;;;16.30;;
2049;SDS011;8478;49.208;8.806;2023-03-01T08:21:06;19.10;;;17.40;;
2049;SDS011;8478;49.208;8.806;2023-03-01T08:23:34;18.30;;;16.53;;
2049;SDS011;8478;49.208;8.806;2023-03-01T08:26:03;18.33;;;16.67;;
2049;SDS011;8478;49.208;8.806;2023-03-01T08:28:33;19.53;;;17.60;;
2049;SDS011;8478;49.208;8.806;2023-03-01T08:30:59;20.47;;;18.57;;
2049;SDS011;8478;49.208;8.806;2023-03-01T08:33:25;19.90;;;18.20;;
2049;SDS011;8478;49.208;8.806;2023-03-01T08:35:50;18.83;;;17.13;;
2049;SDS011;8478;49.208;8.806;2023-03-01T08:38:16;20.20;;;18.20;;
2049;SDS011;8478;49.208;8.806;2023-03-01T08:40:41;19.40;;;17.40;;
2049;SDS011;8478;49.208;8.806;2023-03-01T08:43:07;19.97;;;17.93;;
2049;SDS011;8478;49.208;8.806;2023-03-01T08:45:33;19.07;;;17.37;;
2049;SDS011;8478;49.208;8.806;2023-03-01T08:47:58;18.30;;;16.70;;
2049;SDS011;8478;49.208;8.806;2023-03-01T08:50:24;19.13;;;17.60;;
2049;SDS011;8478;49.208;8.806;2023-03-01T08:52:50;20.87;;;19.07;;
2049;SDS011;8478;49.208;8.806;2023-03-01T08:55:16;18.27;;;16.80;;
2049;SDS011;8478;49.208;8.806;2023-03-01T08:57:42;19.70;;;17.70;;
2049;SDS011;8478;49.208;8.806;2023-03-01T09:00:08;19.90;;;18.23;;
2049;SDS011;8478;49.208;8.806;2023-03-01T09:02:36;20.63;;;18.77;;
2049;SDS011;8478;49.208;8.806;2023-03-01T09:05:02;20.50;;;18.70;;
2049;SDS011;8478;49.208;8.806;2023-03-01T09:07:28;20.70;;;18.80;;
2049;SDS011;8478;49.208;8.806;2023-03-01T09:09:54;19.90;;;18.00;;
2049;SDS011;8478;49.208;8.806;2023-03-01T09:12:20;20.20;;;18.20;;
2049;SDS011;8478;49.208;8.806;2023-03-01T09:14:46;20.10;;;18.23;;
2049;SDS011;8478;49.208;8.806;2023-03-01T09:17:11;19.63;;;17.73;;
2049;SDS011;8478;49.208;8.806;2023-03-01T09:19:37;18.23;;;16.53;;
2049;SDS011;8478;49.208;8.806;2023-03-01T09:22:03;19.98;;;18.17;;
2049;SDS011;8478;49.208;8.806;2023-03-01T09:24:29;21.23;;;19.33;;
2049;SDS011;8478;49.208;8.806;2023-03-01T09:26:55;20.33;;;18.70;;
2049;SDS011;8478;49.208;8.806;2023-03-01T09:29:21;20.07;;;18.20;;
2049;SDS011;8478;49.208;8.806;2023-03-01T09:31:47;19.27;;;17.43;;
2049;SDS011;8478;49.208;8.806;2023-03-01T09:34:13;20.33;;;18.53;;
2049;SDS011;8478;49.208;8.806;2023-03-01T09:36:41;21.63;;;19.57;;
2049;SDS011;8478;49.208;8.806;2023-03-01T09:39:06;21.33;;;19.23;;
2049;SDS011;8478;49.208;8.806;2023-03-01T09:44:18;20.53;;;18.73;;
2049;SDS011;8478;49.208;8.806;2023-03-01T09:46:50;19.83;;;18.03;;
2049;SDS011;8478;49.208;8.806;2023-03-01T09:49:18;21.17;;;19.17;;
2049;SDS011;8478;49.208;8.806;2023-03-01T09:54:28;21.60;;;19.70;;
2049;SDS011;8478;49.208;8.806;2023-03-01T09:56:57;19.73;;;17.83;;
2049;SDS011;8478;49.208;8.806;2023-03-01T10:05:14;19.47;;;17.77;;
2049;SDS011;8478;49.208;8.806;2023-03-01T10:08:06;20.40;;;18.70;;
2049;SDS011;8478;49.208;8.806;2023-03-01T10:10:56;19.17;;;17.40;;
2049;SDS011;8478;49.208;8.806;2023-03-01T10:13:24;18.57;;;16.87;;
2049;SDS011;8478;49.208;8.806;2023-03-01T10:18:42;19.53;;;17.70;;
2049;SDS011;8478;49.208;8.806;2023-03-01T10:21:17;20.10;;;18.03;;
2049;SDS011;8478;49.208;8.806;2023-03-01T10:23:44;19.17;;;17.37;;
2049;SDS011;8478;49.208;8.806;2023-03-01T10:26:27;19.30;;;17.40;;
2049;SDS011;8478;49.208;8.806;2023-03-01T10:29:18;17.67;;;16.03;;
2049;SDS011;8478;49.208;8.806;2023-03-01T10:32:14;18.23;;;16.53;;
2049;SDS011;8478;49.208;8.806;2023-03-01T10:34:40;21.40;;;19.40;;
2049;SDS011;8478;49.208;8.806;2023-03-01T10:40:01;20.00;;;18.27;;
2049;SDS011;8478;49.208;8.806;2023-03-01T10:42:32;19.97;;;17.97;;
2049;SDS011;8478;49.208;8.806;2023-03-01T10:47:44;19.20;;;17.50;;
2049;SDS011;8478;49.208;8.806;2023-03-01T10:50:20;20.13;;;18.30;;
2049;SDS011;8478;49.208;8.806;2023-03-01T10:52:58;19.70;;;17.90;;
2049;SDS011;8478;49.208;8.806;2023-03-01T11:03:23;20.97;;;18.97;;
2049;SDS011;8478;49.208;8.806;2023-03-01T11:05:55;21.40;;;19.03;;
2049;SDS011;8478;49.208;8.806;2023-03-01T11:08:43;21.90;;;19.67;;
2049;SDS011;8478;49.208;8.806;2023-03-01T11:16:40;19.17;;;17.17;;
2049;SDS011;8478;49.208;8.806;2023-03-01T11:24:29;19.03;;;17.27;;
2049;SDS011;8478;49.208;8.806;2023-03-01T11:26:59;18.53;;;16.83;;
2049;SDS011;8478;49.208;8.806;2023-03-01T11:29:32;18.77;;;16.93;;
2049;SDS011;8478;49.208;8.806;2023-03-01T11:32:05;18.23;;;16.47;;
2049;SDS011;8478;49.208;8.806;2023-03-01T11:45:54;18.27;;;16.70;;
2049;SDS011;8478;49.208;8.806;2023-03-01T11:51:25;18.10;;;16.33;;
2049;SDS011;8478;49.208;8.806;2023-03-01T12:05:36;17.80;;;16.00;;
2049;SDS011;8478;49.208;8.806;2023-03-01T12:14:03;18.43;;;16.63;;
2049;SDS011;8478;49.208;8.806;2023-03-01T12:27:29;20.00;;;18.00;;
2049;SDS011;8478;49.208;8.806;2023-03-01T12:32:55;17.93;;;16.10;;
2049;SDS011;8478;49.208;8.806;2023-03-01T12:41:48;17.77;;;16.10;;
2049;SDS011;8478;49.208;8.806;2023-03-01T12:49:44;18.33;;;16.53;;
2049;SDS011;8478;49.208;8.806;2023-03-01T12:54:45;17.63;;;16.10;;
2049;SDS011;8478;49.208;8.806;2023-03-01T12:57:46;18.23;;;16.23;;
2049;SDS011;8478;49.208;8.806;2023-03-01T13:00:17;18.17;;;16.53;;
2049;SDS011;8478;49.208;8.806;2023-03-01T13:03:00;18.80;;;16.90;;
2049;SDS011;8478;49.208;8.806;2023-03-01T13:10:57;19.63;;;17.83;;
2049;SDS011;8478;49.208;8.806;2023-03-01T13:13:26;19.93;;;18.03;;
2049;SDS011;8478;49.208;8.806;2023-03-01T13:15:53;18.90;;;17.10;;
2049;SDS011;8478;49.208;8.806;2023-03-01T13:20:51;18.70;;;16.85;;
2049;SDS011;8478;49.208;8.806;2023-03-01T13:31:56;19.23;;;17.50;;
2049;SDS011;8478;49.208;8.806;2023-03-01T13:33:57;18.30;;;16.60;;
2049;SDS011;8478;49.208;8.806;2023-03-01T13:41:52;18.70;;;16.90;;
2049;SDS011;8478;49.208;8.806;2023-03-01T13:44:30;17.27;;;15.73;;
2049;SDS011;8478;49.208;8.806;2023-03-01T13:49:36;17.47;;;15.97;;
2049;SDS011;8478;49.208;8.806;2023-03-01T13:55:27;16.93;;;15.40;;
2049;SDS011;8478;49.208;8.806;2023-03-01T14:00:56;18.60;;;16.80;;
2049;SDS011;8478;49.208;8.806;2023-03-01T14:03:24;17.67;;;15.97;;
2049;SDS011;8478;49.208;8.806;2023-03-01T14:08:33;17.30;;;15.80;;
2049;SDS011;8478;49.208;8.806;2023-03-01T14:11:07;18.43;;;16.50;;
2049;SDS011;8478;49.208;8.806;2023-03-01T14:22:12;16.37;;;14.97;;
2049;SDS011;8478;49.208;8.806;2023-03-01T14:27:27;17.63;;;16.00;;
2049;SDS011;8478;49.208;8.806;2023-03-01T14:30:11;18.07;;;16.37;;
2049;SDS011;8478;49.208;8.806;2023-03-01T14:32:38;18.57;;;16.93;;
2049;SDS011;8478;49.208;8.806;2023-03-01T14:35:18;16.17;;;14.77;;
2049;SDS011;8478;49.208;8.806;2023-03-01T14:37:45;16.83;;;15.38;;
2049;SDS011;8478;49.208;8.806;2023-03-01T14:42:46;17.80;;;16.13;;
2049;SDS011;8478;49.208;8.806;2023-03-01T14:45:12;19.00;;;17.13;;
2049;SDS011;8478;49.208;8.806;2023-03-01T14:47:39;19.87;;;17.77;;
2049;SDS011;8478;49.208;8.806;2023-03-01T14:50:09;17.40;;;15.77;;
2049;SDS011;8478;49.208;8.806;2023-03-01T14:52:47;19.10;;;17.17;;
2049;SDS011;8478;49.208;8.806;2023-03-01T14:55:16;18.07;;;16.47;;
2049;SDS011;8478;49.208;8.806;2023-03-01T14:57:44;18.97;;;16.87;;
2049;SDS011;8478;49.208;8.806;2023-03-01T15:00:19;20.00;;;18.10;;
2049;SDS011;8478;49.208;8.806;2023-03-01T15:02:47;20.63;;;18.43;;
2049;SDS011;8478;49.208;8.806;2023-03-01T15:05:15;19.17;;;17.40;;
2049;SDS011;8478;49.208;8.806;2023-03-01T15:07:50;19.13;;;17.37;;
2049;SDS011;8478;49.208;8.806;2023-03-01T15:10:38;20.47;;;18.50;;
2049;SDS011;8478;49.208;8.806;2023-03-01T15:13:19;18.80;;;17.00;;
2049;SDS011;8478;49.208;8.806;2023-03-01T15:15:47;19.13;;;17.23;;
2049;SDS011;8478;49.208;8.806;2023-03-01T15:18:21;18.20;;;16.40;;
2049;SDS011;8478;49.208;8.806;2023-03-01T15:20:51;20.53;;;18.50;;
2049;SDS011;8478;49.208;8.806;2023-03-01T15:23:19;18.93;;;17.23;;
2049;SDS011;8478;49.208;8.806;2023-03-01T15:25:51;18.53;;;16.83;;
2049;SDS011;8478;49.208;8.806;2023-03-01T15:28:30;18.00;;;16.30;;
2049;SDS011;8478;49.208;8.806;2023-03-01T15:31:02;18.10;;;16.40;;
2049;SDS011;8478;49.208;8.806;2023-03-01T15:33:33;17.27;;;15.70;;
2049;SDS011;8478;49.208;8.806;2023-03-01T15:36:01;18.20;;;16.50;;
2049;SDS011;8478;49.208;8.806;2023-03-01T15:38:55;18.63;;;16.90;;
2049;SDS011;8478;49.208;8.806;2023-03-01T15:43:51;17.17;;;15.57;;
2049;SDS011;8478;49.208;8.806;2023-03-01T15:46:30;17.70;;;15.90;;
2049;SDS011;8478;49.208;8.806;2023-03-01T15:49:00;17.27;;;15.73;;
2049;SDS011;8478;49.208;8.806;2023-03-01T15:51:29;17.70;;;15.63;;
2049;SDS011;8478;49.208;8.806;2023-03-01T15:54:02;16.87;;;15.43;;
2049;SDS011;8478;49.208;8.806;2023-03-01T15:56:37;18.63;;;17.03;;
2049;SDS011;8478;49.208;8.806;2023-03-01T15:59:03;17.07;;;15.37;;
2049;SDS011;8478;49.208;8.806;2023-03-01T16:01:29;17.40;;;15.80;;
2049;SDS011;8478;49.208;8.806;2023-03-01T16:03:55;16.27;;;14.77;;
2049;SDS011;8478;49.208;8.806;2023-03-01T16:06:23;18.00;;;16.10;;
2049;SDS011;8478;49.208;8.806;2023-03-01T16:08:48;16.93;;;15.40;;
2049;SDS011;8478;49.208;8.806;2023-03-01T16:11:16;15.13;;;13.93;;
2049;SDS011;8478;49.208;8.806;2023-03-01T16:13:42;16.37;;;14.97;;
2049;SDS011;8478;49.208;8.806;2023-03-01T16:16:13;17.50;;;15.90;;
2049;SDS011;8478;49.208;8.806;2023-03-01T16:18:44;17.17;;;15.57;;
2049;SDS011;8478;49.208;8.806;2023-03-01T16:21:21;16.20;;;14.70;;
2049;SDS011;8478;49.208;8.806;2023-03-01T16:23:48;15.47;;;14.07;;
2049;SDS011;8478;49.208;8.806;2023-03-01T16:26:14;17.33;;;15.67;;
2049;SDS011;8478;49.208;8.806;2023-03-01T16:28:41;16.10;;;14.63;;
2049;SDS011;8478;49.208;8.806;2023-03-01T16:31:07;16.20;;;14.70;;
2049;SDS011;8478;49.208;8.806;2023-03-01T16:33:33;15.27;;;13.97;;
2049;SDS011;8478;49.208;8.806;2023-03-01T16:36:09;16.63;;;14.60;;
2049;SDS011;8478;49.208;8.806;2023-03-01T16:38:37;16.47;;;14.80;;
2049;SDS011;8478;49.208;8.806;2023-03-01T16:41:04;16.13;;;14.60;;
2049;SDS011;8478;49.208;8.806;2023-03-01T16:43:30;16.63;;;15.13;;
2049;SDS011;8478;49.208;8.806;2023-03-01T16:45:56;14.83;;;13.50;;
2049;SDS011;8478;49.208;8.806;2023-03-01T16:48:23;15.73;;;14.23;;
2049;SDS011;8478;49.208;8.806;2023-03-01T16:50:59;16.70;;;15.10;;
2049;SDS011;8478;49.208;8.806;2023-03-01T16:53:26;15.60;;;14.20;;
2049;SDS011;8478;49.208;8.806;2023-03-01T16:55:53;16.07;;;14.57;;
2049;SDS011;8478;49.208;8.806;2023-03-01T16:58:20;14.00;;;12.50;;
2049;SDS011;8478;49.208;8.806;2023-03-01T17:00:45;15.03;;;13.63;;
2049;SDS011;8478;49.208;8.806;2023-03-01T17:03:11;16.33;;;14.80;;
2049;SDS011;8478;49.208;8.806;2023-03-01T17:05:39;17.60;;;15.80;;
2049;SDS011;8478;49.208;8.806;2023-03-01T17:08:05;20.17;;;18.03;;
2049;SDS011;8478;49.208;8.806;2023-03-01T17:10:32;17.80;;;16.03;;
2049;SDS011;8478;49.208;8.806;2023-03-01T17:12:58;18.93;;;17.10;;
2049;SDS011;8478;49.208;8.806;2023-03-01T17:15:24;20.40;;;17.87;;
2049;SDS011;8478;49.208;8.806;2023-03-01T17:17:49;20.03;;;17.60;;
2049;SDS011;8478;49.208;8.806;2023-03-01T17:20:16;21.20;;;19.03;;
2049;SDS011;8478;49.208;8.806;2023-03-01T17:22:42;22.87;;;20.67;;
2049;SDS011;8478;49.208;8.806;2023-03-01T17:25:08;22.33;;;19.63;;
2049;SDS011;8478;49.208;8.806;2023-03-01T17:27:39;21.67;;;19.47;;
2049;SDS011;8478;49.208;8.806;2023-03-01T17:30:05;23.70;;;20.80;;
2049;SDS011;8478;49.208;8.806;2023-03-01T17:32:33;22.23;;;20.10;;
2049;SDS011;8478;49.208;8.806;2023-03-01T17:34:58;25.50;;;22.80;;
2049;SDS011;8478;49.208;8.806;2023-03-01T17:37:24;31.80;;;28.50;;
2049;SDS011;8478;49.208;8.806;2023-03-01T17:39:50;33.40;;;29.87;;
2049;SDS011;8478;49.208;8.806;2023-03-01T17:42:15;30.87;;;27.77;;
2049;SDS011;8478;49.208;8.806;2023-03-01T17:44:41;27.13;;;24.43;;